sensor_id;sensor_type;location;lat;lon;timestamp;temperature;humidity
21544;DHT22;10933;50.754;11.508;2023-10-09T00:02:14;11.20;99.90
21544;DHT22;10933;50.754;11.508;2023-10-09T00:04:41;11.10;99.90
21544;DHT22;10933;50.754;11.508;2023-10-09T00:07:11;11.10;99.90
21544;DHT22;10933;50.754;11.508;2023-10-09T00:09:37;11.10;99.90
21544;DHT22;10933;50.754;11.508;2023-10-09T00:12:19;11.10;99.90
21544;DHT22;10933;50.754;11.508;2023-10-09T00:14:51;11.10;99.90
21544;DHT22;10933;50.754;11.508;2023-10-09T00:17:21;11.10;99.90
21544;DHT22;10933;50.754;11.508;2023-10-09T00:19:49;11.20;99.90
21544;DHT22;10933;50.754;11.508;2023-10-09T00:22:17;11.20;99.90
21544;DHT22;10933;50.754;11.508;2023-10-09T00:24:55;11.10;99.90
21544;DHT22;10933;50.754;11.508;2023-10-09T00:27:43;11.10;99.90
21544;DHT22;10933;50.754;11.508;2023-10-09T00:30:17;11.10;99.90
21544;DHT22;10933;50.754;11.508;2023-10-09T00:32:55;11.10;99.90
21544;DHT22;10933;50.754;11.508;2023-10-09T00:35:24;11.20;99.90
21544;DHT22;10933;50.754;11.508;2023-10-09T00:38:06;11.20;99.90
21544;DHT22;10933;50.754;11.508;2023-10-09T00:40:48;11.10;99.90
21544;DHT22;10933;50.754;11.508;2023-10-09T00:43:28;11.10;99.90
21544;DHT22;10933;50.754;11.508;2023-10-09T00:45:55;11.10;99.90
21544;DHT22;10933;50.754;11.508;2023-10-09T00:48:28;11.10;99.90
21544;DHT22;10933;50.754;11.508;2023-10-09T00:51:03;11.10;99.90
21544;DHT22;10933;50.754;11.508;2023-10-09T00:53:46;11.00;99.90
21544;DHT22;10933;50.754;11.508;2023-10-09T00:56:17;10.90;99.90
21544;DHT22;10933;50.754;11.508;2023-10-09T00:58:51;10.90;99.90
21544;DHT22;10933;50.754;11.508;2023-10-09T01:01:25;10.80;99.90
21544;DHT22;10933;50.754;11.508;2023-10-09T01:04:04;10.80;99.90
21544;DHT22;10933;50.754;11.508;2023-10-09T01:06:38;10.70;99.90
21544;DHT22;10933;50.754;11.508;2023-10-09T01:09:11;10.60;99.90
21544;DHT22;10933;50.754;11.508;2023-10-09T01:11:42;10.60;99.90
21544;DHT22;10933;50.754;11.508;2023-10-09T01:14:28;10.50;99.90
21544;DHT22;10933;50.754;11.508;2023-10-09T01:17:02;10.50;99.90
21544;DHT22;10933;50.754;11.508;2023-10-09T01:19:44;10.40;99.90
21544;DHT22;10933;50.754;11.508;2023-10-09T01:22:09;10.40;99.90
21544;DHT22;10933;50.754;11.508;2023-10-09T01:24:40;10.30;99.90
21544;DHT22;10933;50.754;11.508;2023-10-09T01:27:06;10.30;99.90
21544;DHT22;10933;50.754;11.508;2023-10-09T01:29:38;10.30;99.90
21544;DHT22;10933;50.754;11.508;2023-10-09T01:32:08;10.20;99.90
21544;DHT22;10933;50.754;11.508;2023-10-09T01:34:42;10.10;99.90
21544;DHT22;10933;50.754;11.508;2023-10-09T01:37:15;10.10;99.90
21544;DHT22;10933;50.754;11.508;2023-10-09T01:39:51;10.00;99.90
21544;DHT22;10933;50.754;11.508;2023-10-09T01:42:19;9.90;99.90
21544;DHT22;10933;50.754;11.508;2023-10-09T01:44:58;9.90;99.90
21544;DHT22;10933;50.754;11.508;2023-10-09T01:47:29;9.90;99.90
21544;DHT22;10933;50.754;11.508;2023-10-09T01:49:56;9.90;99.90
21544;DHT22;10933;50.754;11.508;2023-10-09T01:52:23;9.80;99.90
21544;DHT22;10933;50.754;11.508;2023-10-09T01:54:51;9.90;99.90
21544;DHT22;10933;50.754;11.508;2023-10-09T01:57:19;9.80;99.90
21544;DHT22;10933;50.754;11.508;2023-10-09T01:59:49;9.70;99.90
21544;DHT22;10933;50.754;11.508;2023-10-09T02:02:22;9.70;99.90
21544;DHT22;10933;50.754;11.508;2023-10-09T02:04:58;9.70;99.90
21544;DHT22;10933;50.754;11.508;2023-10-09T02:07:37;9.60;99.90
21544;DHT22;10933;50.754;11.508;2023-10-09T02:10:10;9.60;99.90
21544;DHT22;10933;50.754;11.508;2023-10-09T02:12:53;9.60;99.90
21544;DHT22;10933;50.754;11.508;2023-10-09T02:15:29;9.50;99.90
21544;DHT22;10933;50.754;11.508;2023-10-09T02:18:09;9.50;99.90
21544;DHT22;10933;50.754;11.508;2023-10-09T02:23:32;9.40;99.90
21544;DHT22;10933;50.754;11.508;2023-10-09T02:26:11;9.30;99.90
21544;DHT22;10933;50.754;11.508;2023-10-09T02:29:05;9.30;99.90
21544;DHT22;10933;50.754;11.508;2023-10-09T02:31:31;9.20;99.90
21544;DHT22;10933;50.754;11.508;2023-10-09T02:34:07;8.60;99.90
21544;DHT22;10933;50.754;11.508;2023-10-09T02:36:38;9.20;99.90
21544;DHT22;10933;50.754;11.508;2023-10-09T02:39:08;9.10;99.90
21544;DHT22;10933;50.754;11.508;2023-10-09T02:41:56;9.20;99.90
21544;DHT22;10933;50.754;11.508;2023-10-09T02:44:37;9.10;99.90
21544;DHT22;10933;50.754;11.508;2023-10-09T02:47:12;9.10;99.90
21544;DHT22;10933;50.754;11.508;2023-10-09T02:49:48;9.10;99.90
21544;DHT22;10933;50.754;11.508;2023-10-09T02:52:14;9.10;99.90
21544;DHT22;10933;50.754;11.508;2023-10-09T02:54:47;9.10;99.90
21544;DHT22;10933;50.754;11.508;2023-10-09T02:57:13;9.20;99.90
21544;DHT22;10933;50.754;11.508;2023-10-09T02:59:49;9.20;99.90
21544;DHT22;10933;50.754;11.508;2023-10-09T03:02:18;9.20;99.90
21544;DHT22;10933;50.754;11.508;2023-10-09T03:04:44;9.10;99.90
21544;DHT22;10933;50.754;11.508;2023-10-09T03:07:10;9.10;99.90
21544;DHT22;10933;50.754;11.508;2023-10-09T03:09:39;9.10;99.90
21544;DHT22;10933;50.754;11.508;2023-10-09T03:12:06;9.20;99.90
21544;DHT22;10933;50.754;11.508;2023-10-09T03:14:36;9.30;99.90
21544;DHT22;10933;50.754;11.508;2023-10-09T03:17:06;9.30;99.90
21544;DHT22;10933;50.754;11.508;2023-10-09T03:19:37;9.20;99.90
21544;DHT22;10933;50.754;11.508;2023-10-09T03:22:07;9.10;99.90
21544;DHT22;10933;50.754;11.508;2023-10-09T03:24:37;9.20;99.90
21544;DHT22;10933;50.754;11.508;2023-10-09T03:27:10;9.20;99.90
21544;DHT22;10933;50.754;11.508;2023-10-09T03:29:38;9.30;99.90
21544;DHT22;10933;50.754;11.508;2023-10-09T03:32:03;9.30;99.90
21544;DHT22;10933;50.754;11.508;2023-10-09T03:34:29;9.40;99.90
21544;DHT22;10933;50.754;11.508;2023-10-09T03:36:56;9.40;99.90
21544;DHT22;10933;50.754;11.508;2023-10-09T03:39:30;9.50;99.90
21544;DHT22;10933;50.754;11.508;2023-10-09T03:42:12;9.50;99.90
21544;DHT22;10933;50.754;11.508;2023-10-09T03:44:45;9.60;99.90
21544;DHT22;10933;50.754;11.508;2023-10-09T03:47:17;9.60;99.90
21544;DHT22;10933;50.754;11.508;2023-10-09T03:49:50;9.60;99.90
21544;DHT22;10933;50.754;11.508;2023-10-09T03:52:17;9.60;99.90
21544;DHT22;10933;50.754;11.508;2023-10-09T03:54:44;9.60;99.90
21544;DHT22;10933;50.754;11.508;2023-10-09T03:57:15;9.60;99.90
21544;DHT22;10933;50.754;11.508;2023-10-09T03:59:48;9.70;99.90
21544;DHT22;10933;50.754;11.508;2023-10-09T04:02:15;9.70;99.90
21544;DHT22;10933;50.754;11.508;2023-10-09T04:04:42;9.70;99.90
21544;DHT22;10933;50.754;11.508;2023-10-09T04:07:13;9.60;99.90
21544;DHT22;10933;50.754;11.508;2023-10-09T04:09:42;9.60;99.90
21544;DHT22;10933;50.754;11.508;2023-10-09T04:12:12;9.60;99.90
21544;DHT22;10933;50.754;11.508;2023-10-09T04:14:45;9.70;99.90
21544;DHT22;10933;50.754;11.508;2023-10-09T04:17:20;9.70;99.90
21544;DHT22;10933;50.754;11.508;2023-10-09T04:20:08;9.70;99.90
21544;DHT22;10933;50.754;11.508;2023-10-09T04:22:44;9.70;99.90
21544;DHT22;10933;50.754;11.508;2023-10-09T04:25:19;9.70;99.90
21544;DHT22;10933;50.754;11.508;2023-10-09T04:27:57;9.80;99.90
21544;DHT22;10933;50.754;11.508;2023-10-09T04:30:44;9.80;99.90
21544;DHT22;10933;50.754;11.508;2023-10-09T04:33:21;10.40;99.90
21544;DHT22;10933;50.754;11.508;2023-10-09T04:36:03;9.80;99.90
21544;DHT22;10933;50.754;11.508;2023-10-09T04:38:49;9.80;99.90
21544;DHT22;10933;50.754;11.508;2023-10-09T04:41:30;9.90;99.90
21544;DHT22;10933;50.754;11.508;2023-10-09T04:44:09;9.90;99.90
21544;DHT22;10933;50.754;11.508;2023-10-09T04:46:49;9.90;99.90
21544;DHT22;10933;50.754;11.508;2023-10-09T04:49:35;10.00;99.90
21544;DHT22;10933;50.754;11.508;2023-10-09T04:52:15;10.00;99.90
21544;DHT22;10933;50.754;11.508;2023-10-09T04:54:51;10.00;99.90
21544;DHT22;10933;50.754;11.508;2023-10-09T05:00:16;10.10;99.90
21544;DHT22;10933;50.754;11.508;2023-10-09T05:02:54;10.10;99.90
21544;DHT22;10933;50.754;11.508;2023-10-09T05:05:31;10.10;99.90
21544;DHT22;10933;50.754;11.508;2023-10-09T05:10:57;10.20;99.90
21544;DHT22;10933;50.754;11.508;2023-10-09T05:13:35;10.20;99.90
21544;DHT22;10933;50.754;11.508;2023-10-09T05:16:08;10.20;99.90
21544;DHT22;10933;50.754;11.508;2023-10-09T05:18:45;10.20;99.90
21544;DHT22;10933;50.754;11.508;2023-10-09T05:21:35;10.20;99.90
21544;DHT22;10933;50.754;11.508;2023-10-09T05:24:03;10.30;99.90
21544;DHT22;10933;50.754;11.508;2023-10-09T05:26:48;10.20;99.90
21544;DHT22;10933;50.754;11.508;2023-10-09T05:29:24;10.20;99.90
21544;DHT22;10933;50.754;11.508;2023-10-09T05:32:01;10.20;99.90
21544;DHT22;10933;50.754;11.508;2023-10-09T05:34:42;10.20;99.90
21544;DHT22;10933;50.754;11.508;2023-10-09T05:37:31;10.30;99.90
21544;DHT22;10933;50.754;11.508;2023-10-09T05:39:59;10.30;99.90
21544;DHT22;10933;50.754;11.508;2023-10-09T05:42:28;10.30;99.90
21544;DHT22;10933;50.754;11.508;2023-10-09T05:45:09;10.40;99.90
21544;DHT22;10933;50.754;11.508;2023-10-09T05:47:46;10.50;99.90
21544;DHT22;10933;50.754;11.508;2023-10-09T05:50:27;10.60;99.90
21544;DHT22;10933;50.754;11.508;2023-10-09T05:52:57;10.60;99.90
21544;DHT22;10933;50.754;11.508;2023-10-09T05:55:32;10.60;99.90
21544;DHT22;10933;50.754;11.508;2023-10-09T05:58:03;10.50;99.90
21544;DHT22;10933;50.754;11.508;2023-10-09T06:00:48;10.60;99.90
21544;DHT22;10933;50.754;11.508;2023-10-09T06:03:30;10.60;99.90
21544;DHT22;10933;50.754;11.508;2023-10-09T06:06:17;10.70;99.90
21544;DHT22;10933;50.754;11.508;2023-10-09T06:09:08;10.70;99.90
21544;DHT22;10933;50.754;11.508;2023-10-09T06:11:41;10.70;99.90
21544;DHT22;10933;50.754;11.508;2023-10-09T06:14:16;10.70;99.90
21544;DHT22;10933;50.754;11.508;2023-10-09T06:17:11;10.80;99.90
21544;DHT22;10933;50.754;11.508;2023-10-09T06:20:04;10.80;99.90
21544;DHT22;10933;50.754;11.508;2023-10-09T06:22:50;10.80;99.90
21544;DHT22;10933;50.754;11.508;2023-10-09T06:25:22;10.90;99.90
21544;DHT22;10933;50.754;11.508;2023-10-09T06:27:52;10.90;99.90
21544;DHT22;10933;50.754;11.508;2023-10-09T06:30:18;11.00;99.90
21544;DHT22;10933;50.754;11.508;2023-10-09T06:32:44;11.10;99.90
21544;DHT22;10933;50.754;11.508;2023-10-09T06:35:28;11.10;99.90
21544;DHT22;10933;50.754;11.508;2023-10-09T06:37:58;11.20;99.90
21544;DHT22;10933;50.754;11.508;2023-10-09T06:40:31;11.30;99.90
21544;DHT22;10933;50.754;11.508;2023-10-09T06:43:18;11.40;99.90
21544;DHT22;10933;50.754;11.508;2023-10-09T06:45:51;11.50;99.90
21544;DHT22;10933;50.754;11.508;2023-10-09T06:48:44;11.60;99.90
21544;DHT22;10933;50.754;11.508;2023-10-09T06:51:14;11.50;99.90
21544;DHT22;10933;50.754;11.508;2023-10-09T06:53:52;11.60;99.90
21544;DHT22;10933;50.754;11.508;2023-10-09T06:56:28;11.80;99.90
21544;DHT22;10933;50.754;11.508;2023-10-09T06:59:05;11.90;99.90
21544;DHT22;10933;50.754;11.508;2023-10-09T07:01:48;12.00;99.90
21544;DHT22;10933;50.754;11.508;2023-10-09T07:04:33;12.00;99.90
21544;DHT22;10933;50.754;11.508;2023-10-09T07:07:02;12.00;99.90
21544;DHT22;10933;50.754;11.508;2023-10-09T07:09:35;12.10;99.90
21544;DHT22;10933;50.754;11.508;2023-10-09T07:12:32;12.00;99.90
21544;DHT22;10933;50.754;11.508;2023-10-09T07:15:02;12.10;99.90
21544;DHT22;10933;50.754;11.508;2023-10-09T07:17:50;12.20;99.90
21544;DHT22;10933;50.754;11.508;2023-10-09T07:20:18;12.10;99.90
21544;DHT22;10933;50.754;11.508;2023-10-09T07:23:03;12.10;99.90
21544;DHT22;10933;50.754;11.508;2023-10-09T07:25:42;12.20;99.90
21544;DHT22;10933;50.754;11.508;2023-10-09T07:28:21;12.40;99.90
21544;DHT22;10933;50.754;11.508;2023-10-09T07:31:08;12.40;99.90
21544;DHT22;10933;50.754;11.508;2023-10-09T07:33:42;12.40;99.90
21544;DHT22;10933;50.754;11.508;2023-10-09T07:36:22;12.50;99.90
21544;DHT22;10933;50.754;11.508;2023-10-09T07:39:00;12.60;99.90
21544;DHT22;10933;50.754;11.508;2023-10-09T07:41:30;12.80;99.90
21544;DHT22;10933;50.754;11.508;2023-10-09T07:43:57;13.10;99.90
21544;DHT22;10933;50.754;11.508;2023-10-09T07:46:23;13.20;99.90
21544;DHT22;10933;50.754;11.508;2023-10-09T07:49:05;13.10;99.90
21544;DHT22;10933;50.754;11.508;2023-10-09T07:51:50;13.10;99.90
21544;DHT22;10933;50.754;11.508;2023-10-09T07:54:18;13.10;99.90
21544;DHT22;10933;50.754;11.508;2023-10-09T07:57:01;13.10;99.90
21544;DHT22;10933;50.754;11.508;2023-10-09T07:59:42;13.00;99.90
21544;DHT22;10933;50.754;11.508;2023-10-09T08:02:20;12.90;99.90
21544;DHT22;10933;50.754;11.508;2023-10-09T08:04:58;13.10;99.90
21544;DHT22;10933;50.754;11.508;2023-10-09T08:07:45;13.20;99.90
21544;DHT22;10933;50.754;11.508;2023-10-09T08:10:22;13.20;99.90
21544;DHT22;10933;50.754;11.508;2023-10-09T08:12:48;13.20;99.90
21544;DHT22;10933;50.754;11.508;2023-10-09T08:15:15;13.10;99.90
21544;DHT22;10933;50.754;11.508;2023-10-09T08:17:52;13.10;99.90
21544;DHT22;10933;50.754;11.508;2023-10-09T08:20:27;13.00;99.90
21544;DHT22;10933;50.754;11.508;2023-10-09T08:23:02;13.00;99.90
21544;DHT22;10933;50.754;11.508;2023-10-09T08:25:30;13.00;99.90
21544;DHT22;10933;50.754;11.508;2023-10-09T08:28:02;13.10;99.90
21544;DHT22;10933;50.754;11.508;2023-10-09T08:30:47;13.10;99.90
21544;DHT22;10933;50.754;11.508;2023-10-09T08:33:29;13.10;99.90
21544;DHT22;10933;50.754;11.508;2023-10-09T08:36:18;13.00;99.90
21544;DHT22;10933;50.754;11.508;2023-10-09T08:38:48;12.90;99.90
21544;DHT22;10933;50.754;11.508;2023-10-09T08:41:14;12.80;99.90
21544;DHT22;10933;50.754;11.508;2023-10-09T08:43:49;12.70;99.90
21544;DHT22;10933;50.754;11.508;2023-10-09T08:46:21;12.90;99.90
21544;DHT22;10933;50.754;11.508;2023-10-09T08:48:56;13.10;99.90
21544;DHT22;10933;50.754;11.508;2023-10-09T08:51:25;13.10;99.90
21544;DHT22;10933;50.754;11.508;2023-10-09T08:53:52;13.30;99.90
21544;DHT22;10933;50.754;11.508;2023-10-09T08:56:21;13.20;99.90
21544;DHT22;10933;50.754;11.508;2023-10-09T08:58:57;13.20;99.90
21544;DHT22;10933;50.754;11.508;2023-10-09T09:01:27;13.40;99.90
21544;DHT22;10933;50.754;11.508;2023-10-09T09:03:57;13.40;99.90
21544;DHT22;10933;50.754;11.508;2023-10-09T09:06:25;13.50;99.90
21544;DHT22;10933;50.754;11.508;2023-10-09T09:08:52;13.60;99.90
21544;DHT22;10933;50.754;11.508;2023-10-09T09:11:25;13.50;99.90
21544;DHT22;10933;50.754;11.508;2023-10-09T09:14:03;13.70;99.90
21544;DHT22;10933;50.754;11.508;2023-10-09T09:16:34;13.70;99.90
21544;DHT22;10933;50.754;11.508;2023-10-09T09:19:06;13.90;99.90
21544;DHT22;10933;50.754;11.508;2023-10-09T09:24:04;14.10;99.90
21544;DHT22;10933;50.754;11.508;2023-10-09T09:26:43;14.10;99.90
21544;DHT22;10933;50.754;11.508;2023-10-09T09:29:16;14.20;99.90
21544;DHT22;10933;50.754;11.508;2023-10-09T09:31:53;14.20;99.90
21544;DHT22;10933;50.754;11.508;2023-10-09T09:34:23;14.20;99.90
21544;DHT22;10933;50.754;11.508;2023-10-09T09:36:55;14.10;99.90
21544;DHT22;10933;50.754;11.508;2023-10-09T09:39:25;14.20;99.90
21544;DHT22;10933;50.754;11.508;2023-10-09T09:41:58;14.20;99.90
21544;DHT22;10933;50.754;11.508;2023-10-09T09:44:33;14.40;99.90
21544;DHT22;10933;50.754;11.508;2023-10-09T09:47:10;14.50;99.90
21544;DHT22;10933;50.754;11.508;2023-10-09T09:49:41;14.60;99.90
21544;DHT22;10933;50.754;11.508;2023-10-09T09:52:09;14.60;99.90
21544;DHT22;10933;50.754;11.508;2023-10-09T09:54:39;14.60;99.90
21544;DHT22;10933;50.754;11.508;2023-10-09T09:57:07;14.50;99.90
21544;DHT22;10933;50.754;11.508;2023-10-09T09:59:40;14.50;99.90
21544;DHT22;10933;50.754;11.508;2023-10-09T10:02:09;14.50;99.90
21544;DHT22;10933;50.754;11.508;2023-10-09T10:04:46;13.70;99.90
21544;DHT22;10933;50.754;11.508;2023-10-09T10:07:16;14.40;99.90
21544;DHT22;10933;50.754;11.508;2023-10-09T10:09:47;14.50;99.90
21544;DHT22;10933;50.754;11.508;2023-10-09T10:15:13;14.80;99.90
21544;DHT22;10933;50.754;11.508;2023-10-09T10:20:26;15.10;99.90
21544;DHT22;10933;50.754;11.508;2023-10-09T10:23:17;15.30;99.90
21544;DHT22;10933;50.754;11.508;2023-10-09T10:25:51;15.50;99.90
21544;DHT22;10933;50.754;11.508;2023-10-09T10:28:26;15.60;99.90
21544;DHT22;10933;50.754;11.508;2023-10-09T10:31:11;15.70;99.90
21544;DHT22;10933;50.754;11.508;2023-10-09T10:36:24;16.00;99.90
21544;DHT22;10933;50.754;11.508;2023-10-09T10:39:05;16.10;99.90
21544;DHT22;10933;50.754;11.508;2023-10-09T10:41:57;16.00;99.90
21544;DHT22;10933;50.754;11.508;2023-10-09T10:44:32;16.40;99.90
21544;DHT22;10933;50.754;11.508;2023-10-09T10:47:12;16.30;99.90
21544;DHT22;10933;50.754;11.508;2023-10-09T10:50:02;16.30;99.90
21544;DHT22;10933;50.754;11.508;2023-10-09T10:52:47;16.40;99.90
21544;DHT22;10933;50.754;11.508;2023-10-09T10:55:23;16.30;99.90
21544;DHT22;10933;50.754;11.508;2023-10-09T10:58:01;16.30;99.90
21544;DHT22;10933;50.754;11.508;2023-10-09T11:00:35;16.10;99.90
21544;DHT22;10933;50.754;11.508;2023-10-09T11:03:21;16.40;99.90
21544;DHT22;10933;50.754;11.508;2023-10-09T11:06:02;17.90;99.90
21544;DHT22;10933;50.754;11.508;2023-10-09T11:08:47;18.20;99.90
21544;DHT22;10933;50.754;11.508;2023-10-09T11:11:34;18.30;99.90
21544;DHT22;10933;50.754;11.508;2023-10-09T11:14:13;18.10;99.90
21544;DHT22;10933;50.754;11.508;2023-10-09T11:17:02;18.00;99.90
21544;DHT22;10933;50.754;11.508;2023-10-09T11:19:48;18.50;99.90
21544;DHT22;10933;50.754;11.508;2023-10-09T11:22:18;18.50;99.90
21544;DHT22;10933;50.754;11.508;2023-10-09T11:24:54;18.50;99.90
21544;DHT22;10933;50.754;11.508;2023-10-09T11:27:50;18.60;99.90
21544;DHT22;10933;50.754;11.508;2023-10-09T11:30:16;18.40;99.90
21544;DHT22;10933;50.754;11.508;2023-10-09T11:33:07;18.50;99.90
21544;DHT22;10933;50.754;11.508;2023-10-09T11:35:40;18.40;99.90
21544;DHT22;10933;50.754;11.508;2023-10-09T11:38:08;18.60;99.90
21544;DHT22;10933;50.754;11.508;2023-10-09T11:40:47;18.70;99.90
21544;DHT22;10933;50.754;11.508;2023-10-09T11:43:53;18.70;99.90
21544;DHT22;10933;50.754;11.508;2023-10-09T11:46:23;18.70;99.90
21544;DHT22;10933;50.754;11.508;2023-10-09T11:49:08;18.80;99.90
21544;DHT22;10933;50.754;11.508;2023-10-09T11:51:47;18.80;99.90
21544;DHT22;10933;50.754;11.508;2023-10-09T11:54:32;18.90;99.90
21544;DHT22;10933;50.754;11.508;2023-10-09T11:56:59;18.90;99.90
21544;DHT22;10933;50.754;11.508;2023-10-09T11:59:29;19.00;99.90
21544;DHT22;10933;50.754;11.508;2023-10-09T12:02:09;19.00;99.90
21544;DHT22;10933;50.754;11.508;2023-10-09T12:04:42;19.00;99.90
21544;DHT22;10933;50.754;11.508;2023-10-09T12:07:10;19.10;99.90
21544;DHT22;10933;50.754;11.508;2023-10-09T12:09:37;19.10;99.90
21544;DHT22;10933;50.754;11.508;2023-10-09T12:12:04;19.20;99.90
21544;DHT22;10933;50.754;11.508;2023-10-09T12:14:33;19.00;99.90
21544;DHT22;10933;50.754;11.508;2023-10-09T12:17:06;19.00;99.90
21544;DHT22;10933;50.754;11.508;2023-10-09T12:19:38;18.80;99.90
21544;DHT22;10933;50.754;11.508;2023-10-09T12:22:06;18.60;99.90
21544;DHT22;10933;50.754;11.508;2023-10-09T12:24:36;18.50;99.90
21544;DHT22;10933;50.754;11.508;2023-10-09T12:27:09;18.40;99.90
21544;DHT22;10933;50.754;11.508;2023-10-09T12:29:38;18.30;99.90
21544;DHT22;10933;50.754;11.508;2023-10-09T12:32:10;18.40;99.90
21544;DHT22;10933;50.754;11.508;2023-10-09T12:34:36;18.30;99.90
21544;DHT22;10933;50.754;11.508;2023-10-09T12:37:04;18.20;99.90
21544;DHT22;10933;50.754;11.508;2023-10-09T12:39:30;18.40;99.90
21544;DHT22;10933;50.754;11.508;2023-10-09T12:42:01;18.50;99.90
21544;DHT22;10933;50.754;11.508;2023-10-09T12:44:34;18.70;99.90
21544;DHT22;10933;50.754;11.508;2023-10-09T12:47:08;18.90;99.90
21544;DHT22;10933;50.754;11.508;2023-10-09T12:49:36;18.70;99.90
21544;DHT22;10933;50.754;11.508;2023-10-09T12:52:10;18.60;99.90
21544;DHT22;10933;50.754;11.508;2023-10-09T12:54:44;18.50;99.90
21544;DHT22;10933;50.754;11.508;2023-10-09T12:57:14;18.30;99.90
21544;DHT22;10933;50.754;11.508;2023-10-09T12:59:40;18.40;99.90
21544;DHT22;10933;50.754;11.508;2023-10-09T13:02:15;18.40;99.90
21544;DHT22;10933;50.754;11.508;2023-10-09T13:04:54;18.20;99.90
21544;DHT22;10933;50.754;11.508;2023-10-09T13:07:21;18.10;99.90
21544;DHT22;10933;50.754;11.508;2023-10-09T13:09:48;18.10;99.90
21544;DHT22;10933;50.754;11.508;2023-10-09T13:12:34;18.00;99.90
21544;DHT22;10933;50.754;11.508;2023-10-09T13:15:05;18.20;99.90
21544;DHT22;10933;50.754;11.508;2023-10-09T13:17:35;18.20;99.90
21544;DHT22;10933;50.754;11.508;2023-10-09T13:20:02;18.30;99.90
21544;DHT22;10933;50.754;11.508;2023-10-09T13:22:42;18.40;99.90
21544;DHT22;10933;50.754;11.508;2023-10-09T13:25:09;18.50;99.90
21544;DHT22;10933;50.754;11.508;2023-10-09T13:27:51;18.50;99.90
21544;DHT22;10933;50.754;11.508;2023-10-09T13:30:20;18.40;99.90
21544;DHT22;10933;50.754;11.508;2023-10-09T13:32:48;18.20;99.90
21544;DHT22;10933;50.754;11.508;2023-10-09T13:35:17;18.10;99.90
21544;DHT22;10933;50.754;11.508;2023-10-09T13:37:44;18.10;99.90
21544;DHT22;10933;50.754;11.508;2023-10-09T13:40:22;17.50;99.90
21544;DHT22;10933;50.754;11.508;2023-10-09T13:42:57;17.60;99.90
21544;DHT22;10933;50.754;11.508;2023-10-09T13:45:27;17.50;99.90
21544;DHT22;10933;50.754;11.508;2023-10-09T13:47:57;17.50;99.90
21544;DHT22;10933;50.754;11.508;2023-10-09T13:50:26;17.50;99.90
21544;DHT22;10933;50.754;11.508;2023-10-09T13:52:59;17.60;99.90
21544;DHT22;10933;50.754;11.508;2023-10-09T13:55:25;17.60;99.90
21544;DHT22;10933;50.754;11.508;2023-10-09T13:57:59;17.60;99.90
21544;DHT22;10933;50.754;11.508;2023-10-09T14:00:25;17.60;99.90
21544;DHT22;10933;50.754;11.508;2023-10-09T14:03:00;17.40;99.90
21544;DHT22;10933;50.754;11.508;2023-10-09T14:05:29;17.20;99.90
21544;DHT22;10933;50.754;11.508;2023-10-09T14:07:55;17.10;99.90
21544;DHT22;10933;50.754;11.508;2023-10-09T14:10:26;16.70;99.90
21544;DHT22;10933;50.754;11.508;2023-10-09T14:12:55;16.80;99.90
21544;DHT22;10933;50.754;11.508;2023-10-09T14:15:23;16.50;99.90
21544;DHT22;10933;50.754;11.508;2023-10-09T14:17:49;16.80;99.90
21544;DHT22;10933;50.754;11.508;2023-10-09T14:20:21;17.20;99.90
21544;DHT22;10933;50.754;11.508;2023-10-09T14:23:00;17.20;99.90
21544;DHT22;10933;50.754;11.508;2023-10-09T14:25:36;17.10;99.90
21544;DHT22;10933;50.754;11.508;2023-10-09T14:28:08;17.10;99.90
21544;DHT22;10933;50.754;11.508;2023-10-09T14:30:37;17.10;99.90
21544;DHT22;10933;50.754;11.508;2023-10-09T14:33:10;17.10;99.90
21544;DHT22;10933;50.754;11.508;2023-10-09T14:35:43;17.10;99.90
21544;DHT22;10933;50.754;11.508;2023-10-09T14:38:10;17.10;99.90
21544;DHT22;10933;50.754;11.508;2023-10-09T14:40:41;17.20;99.90
21544;DHT22;10933;50.754;11.508;2023-10-09T14:43:09;17.10;99.90
21544;DHT22;10933;50.754;11.508;2023-10-09T14:45:48;17.20;99.90
21544;DHT22;10933;50.754;11.508;2023-10-09T14:48:17;17.20;99.90
21544;DHT22;10933;50.754;11.508;2023-10-09T14:50:52;17.30;99.90
21544;DHT22;10933;50.754;11.508;2023-10-09T14:53:22;17.50;99.90
21544;DHT22;10933;50.754;11.508;2023-10-09T14:55:59;17.40;99.90
21544;DHT22;10933;50.754;11.508;2023-10-09T14:58:34;17.40;99.90
21544;DHT22;10933;50.754;11.508;2023-10-09T15:01:10;17.40;99.90
21544;DHT22;10933;50.754;11.508;2023-10-09T15:03:38;17.40;99.90
21544;DHT22;10933;50.754;11.508;2023-10-09T15:06:04;17.40;99.90
21544;DHT22;10933;50.754;11.508;2023-10-09T15:08:35;17.40;99.90
21544;DHT22;10933;50.754;11.508;2023-10-09T15:11:02;17.40;99.90
21544;DHT22;10933;50.754;11.508;2023-10-09T15:13:27;17.40;99.90
21544;DHT22;10933;50.754;11.508;2023-10-09T15:15:54;17.30;99.90
21544;DHT22;10933;50.754;11.508;2023-10-09T15:18:21;17.40;99.90
21544;DHT22;10933;50.754;11.508;2023-10-09T15:20:48;17.40;99.90
21544;DHT22;10933;50.754;11.508;2023-10-09T15:23:14;17.40;99.90
21544;DHT22;10933;50.754;11.508;2023-10-09T15:25:40;17.40;99.90
21544;DHT22;10933;50.754;11.508;2023-10-09T15:28:11;17.30;99.90
21544;DHT22;10933;50.754;11.508;2023-10-09T15:30:38;17.30;99.90
21544;DHT22;10933;50.754;11.508;2023-10-09T15:33:07;17.20;99.90
21544;DHT22;10933;50.754;11.508;2023-10-09T15:35:34;17.20;99.90
21544;DHT22;10933;50.754;11.508;2023-10-09T15:38:01;17.20;99.90
21544;DHT22;10933;50.754;11.508;2023-10-09T15:40:30;17.10;99.90
21544;DHT22;10933;50.754;11.508;2023-10-09T15:43:00;17.20;99.90
21544;DHT22;10933;50.754;11.508;2023-10-09T15:45:27;17.20;99.90
21544;DHT22;10933;50.754;11.508;2023-10-09T15:47:57;17.10;99.90
21544;DHT22;10933;50.754;11.508;2023-10-09T15:50:30;17.10;99.90
21544;DHT22;10933;50.754;11.508;2023-10-09T15:53:00;17.10;99.90
21544;DHT22;10933;50.754;11.508;2023-10-09T15:55:28;17.10;99.90
21544;DHT22;10933;50.754;11.508;2023-10-09T15:57:54;17.10;99.90
21544;DHT22;10933;50.754;11.508;2023-10-09T16:00:21;17.10;99.90
21544;DHT22;10933;50.754;11.508;2023-10-09T16:02:54;17.10;99.90
21544;DHT22;10933;50.754;11.508;2023-10-09T16:05:21;17.10;99.90
21544;DHT22;10933;50.754;11.508;2023-10-09T16:07:54;17.10;99.90
21544;DHT22;10933;50.754;11.508;2023-10-09T16:10:21;17.10;99.90
21544;DHT22;10933;50.754;11.508;2023-10-09T16:12:48;17.10;99.90
21544;DHT22;10933;50.754;11.508;2023-10-09T16:15:16;17.10;99.90
21544;DHT22;10933;50.754;11.508;2023-10-09T16:17:46;17.00;99.90
21544;DHT22;10933;50.754;11.508;2023-10-09T16:20:13;17.10;99.90
21544;DHT22;10933;50.754;11.508;2023-10-09T16:22:49;17.00;99.90